sensor_id;sensor_type;location;lat;lon;timestamp;pressure;altitude;pressure_sealevel;temperature;humidity
56334;BME280;42240;53.626;55.886;2024-02-28T00:01:24;58971.94;;;-145.10;100.00
56334;BME280;42240;53.626;55.886;2024-02-28T00:02:58;58971.94;;;-145.10;100.00
56334;BME280;42240;53.626;55.886;2024-02-28T00:04:31;58971.94;;;-145.10;100.00
56334;BME280;42240;53.626;55.886;2024-02-28T00:06:05;58971.94;;;-145.10;100.00
56334;BME280;42240;53.626;55.886;2024-02-28T00:07:39;58971.94;;;-145.10;100.00
56334;BME280;42240;53.626;55.886;2024-02-28T00:09:12;58971.94;;;-145.10;100.00
56334;BME280;42240;53.626;55.886;2024-02-28T00:10:48;58971.94;;;-145.10;100.00
56334;BME280;42240;53.626;55.886;2024-02-28T00:12:22;58971.94;;;-145.10;100.00
56334;BME280;42240;53.626;55.886;2024-02-28T00:13:57;58971.94;;;-145.10;100.00
56334;BME280;42240;53.626;55.886;2024-02-28T00:15:33;58971.94;;;-145.10;100.00
56334;BME280;42240;53.626;55.886;2024-02-28T00:17:06;58971.94;;;-145.10;100.00
56334;BME280;42240;53.626;55.886;2024-02-28T00:18:39;58971.94;;;-145.10;100.00
56334;BME280;42240;53.626;55.886;2024-02-28T00:20:13;58971.94;;;-145.10;100.00
56334;BME280;42240;53.626;55.886;2024-02-28T00:21:46;58971.94;;;-145.10;100.00
56334;BME280;42240;53.626;55.886;2024-02-28T00:23:20;58971.94;;;-145.10;100.00
56334;BME280;42240;53.626;55.886;2024-02-28T00:24:54;58971.94;;;-145.10;100.00
56334;BME280;42240;53.626;55.886;2024-02-28T00:26:27;58971.94;;;-145.10;100.00
56334;BME280;42240;53.626;55.886;2024-02-28T00:28:04;58971.94;;;-145.10;100.00
56334;BME280;42240;53.626;55.886;2024-02-28T00:29:37;58971.94;;;-145.10;100.00
56334;BME280;42240;53.626;55.886;2024-02-28T00:31:11;58971.94;;;-145.10;100.00
56334;BME280;42240;53.626;55.886;2024-02-28T00:32:45;58971.94;;;-145.10;100.00
56334;BME280;42240;53.626;55.886;2024-02-28T00:34:19;58971.94;;;-145.10;100.00
56334;BME280;42240;53.626;55.886;2024-02-28T00:35:52;58971.94;;;-145.10;100.00
56334;BME280;42240;53.626;55.886;2024-02-28T00:37:26;58971.94;;;-145.10;100.00
56334;BME280;42240;53.626;55.886;2024-02-28T00:39:01;58971.94;;;-145.10;100.00
56334;BME280;42240;53.626;55.886;2024-02-28T00:40:35;58971.94;;;-145.10;100.00
56334;BME280;42240;53.626;55.886;2024-02-28T00:42:08;58971.94;;;-145.10;100.00
56334;BME280;42240;53.626;55.886;2024-02-28T00:43:42;58971.94;;;-145.10;100.00
56334;BME280;42240;53.626;55.886;2024-02-28T00:45:16;58971.94;;;-145.10;100.00
56334;BME280;42240;53.626;55.886;2024-02-28T00:46:51;58971.94;;;-145.10;100.00
56334;BME280;42240;53.626;55.886;2024-02-28T00:48:25;58971.94;;;-145.10;100.00
56334;BME280;42240;53.626;55.886;2024-02-28T00:50:01;58971.94;;;-145.10;100.00
56334;BME280;42240;53.626;55.886;2024-02-28T00:51:36;58971.94;;;-145.10;100.00
56334;BME280;42240;53.626;55.886;2024-02-28T00:53:10;58971.94;;;-145.10;100.00
56334;BME280;42240;53.626;55.886;2024-02-28T00:54:44;58971.94;;;-145.10;100.00
56334;BME280;42240;53.626;55.886;2024-02-28T00:56:17;58971.94;;;-145.10;100.00
56334;BME280;42240;53.626;55.886;2024-02-28T00:57:51;58971.94;;;-145.10;100.00
56334;BME280;42240;53.626;55.886;2024-02-28T00:59:25;58971.94;;;-145.10;100.00
56334;BME280;42240;53.626;55.886;2024-02-28T01:00:59;58971.94;;;-145.10;100.00
56334;BME280;42240;53.626;55.886;2024-02-28T01:02:35;58971.94;;;-145.10;100.00
56334;BME280;42240;53.626;55.886;2024-02-28T01:04:08;58971.94;;;-145.10;100.00
56334;BME280;42240;53.626;55.886;2024-02-28T01:05:42;58971.94;;;-145.10;100.00
56334;BME280;42240;53.626;55.886;2024-02-28T01:07:16;58971.94;;;-145.10;100.00
56334;BME280;42240;53.626;55.886;2024-02-28T01:08:49;58971.94;;;-145.10;100.00
56334;BME280;42240;53.626;55.886;2024-02-28T01:10:23;58971.94;;;-145.10;100.00
56334;BME280;42240;53.626;55.886;2024-02-28T01:11:59;58971.94;;;-145.10;100.00
56334;BME280;42240;53.626;55.886;2024-02-28T01:13:33;58971.94;;;-145.10;100.00
56334;BME280;42240;53.626;55.886;2024-02-28T01:15:07;58971.94;;;-145.10;100.00
56334;BME280;42240;53.626;55.886;2024-02-28T01:16:40;58971.94;;;-145.10;100.00
56334;BME280;42240;53.626;55.886;2024-02-28T01:18:13;58971.94;;;-145.10;100.00
56334;BME280;42240;53.626;55.886;2024-02-28T01:19:47;58971.94;;;-145.10;100.00
56334;BME280;42240;53.626;55.886;2024-02-28T01:21:20;58971.94;;;-145.10;100.00
56334;BME280;42240;53.626;55.886;2024-02-28T01:22:53;58971.94;;;-145.10;100.00
56334;BME280;42240;53.626;55.886;2024-02-28T01:24:26;80557.06;;;-145.10;46.94
56334;BME280;42240;53.626;55.886;2024-02-28T01:26:00;80561.00;;;-145.10;47.11
56334;BME280;42240;53.626;55.886;2024-02-28T01:27:37;80659.97;;;-145.10;46.61
56334;BME280;42240;53.626;55.886;2024-02-28T01:29:10;80576.84;;;-145.10;46.96
56334;BME280;42240;53.626;55.886;2024-02-28T01:30:43;80561.00;;;-145.10;46.60
56334;BME280;42240;53.626;55.886;2024-02-28T01:32:17;80529.34;;;-145.10;46.71
56334;BME280;42240;53.626;55.886;2024-02-28T01:33:50;80576.84;;;-145.10;46.18
56334;BME280;42240;53.626;55.886;2024-02-28T01:35:24;80481.84;;;-145.10;45.94
56334;BME280;42240;53.626;55.886;2024-02-28T01:36:58;80521.44;;;-145.10;46.05
56334;BME280;42240;53.626;55.886;2024-02-28T01:38:31;80529.34;;;-145.10;46.03
56334;BME280;42240;53.626;55.886;2024-02-28T01:40:04;80555.06;;;-145.10;46.54
56334;BME280;42240;53.626;55.886;2024-02-28T01:41:38;80588.72;;;-145.10;46.55
56334;BME280;42240;53.626;55.886;2024-02-28T01:43:15;80580.81;;;-145.10;46.82
56334;BME280;42240;53.626;55.886;2024-02-28T01:44:48;80557.06;;;-145.10;46.88
56334;BME280;42240;53.626;55.886;2024-02-28T01:46:24;80541.22;;;-145.10;46.89
56334;BME280;42240;53.626;55.886;2024-02-28T01:47:59;80549.13;;;-145.10;46.61
56334;BME280;42240;53.626;55.886;2024-02-28T01:49:32;80529.34;;;-145.10;46.63
56334;BME280;42240;53.626;55.886;2024-02-28T01:51:06;80543.19;;;-145.10;46.82
56334;BME280;42240;53.626;55.886;2024-02-28T01:52:40;80521.44;;;-145.10;46.92
56334;BME280;42240;53.626;55.886;2024-02-28T01:54:14;80483.81;;;-145.10;46.53
56334;BME280;42240;53.626;55.886;2024-02-28T01:55:48;80485.81;;;-145.10;46.59
56334;BME280;42240;53.626;55.886;2024-02-28T01:57:22;80481.84;;;-145.10;46.47
56334;BME280;42240;53.626;55.886;2024-02-28T01:58:56;80460.06;;;-145.10;46.71
56334;BME280;42240;53.626;55.886;2024-02-28T02:00:33;80454.13;;;-145.10;46.59
56334;BME280;42240;53.626;55.886;2024-02-28T02:02:07;80466.00;;;-145.10;46.56
56334;BME280;42240;53.626;55.886;2024-02-28T02:03:45;80442.25;;;-145.10;46.56
56334;BME280;42240;53.626;55.886;2024-02-28T02:05:19;80460.06;;;-145.10;46.69
56334;BME280;42240;53.626;55.886;2024-02-28T02:06:59;80471.94;;;-145.10;46.38
56334;BME280;42240;53.626;55.886;2024-02-28T02:08:33;80473.94;;;-145.10;46.99
56334;BME280;42240;53.626;55.886;2024-02-28T02:10:07;80475.91;;;-145.10;46.97
56334;BME280;42240;53.626;55.886;2024-02-28T02:11:43;80650.09;;;-145.10;46.85
56334;BME280;42240;53.626;55.886;2024-02-28T02:13:17;80525.38;;;-145.10;47.25
56334;BME280;42240;53.626;55.886;2024-02-28T02:14:50;80519.44;;;-145.10;47.57
56334;BME280;42240;53.626;55.886;2024-02-28T02:16:24;80485.81;;;-145.10;47.34
56334;BME280;42240;53.626;55.886;2024-02-28T02:18:00;80485.81;;;-145.10;47.21
56334;BME280;42240;53.626;55.886;2024-02-28T02:19:34;80466.00;;;-145.10;47.39
56334;BME280;42240;53.626;55.886;2024-02-28T02:21:08;80414.53;;;-145.10;47.44
56334;BME280;42240;53.626;55.886;2024-02-28T02:22:42;80466.00;;;-145.10;47.17
56334;BME280;42240;53.626;55.886;2024-02-28T02:24:15;80464.03;;;-145.10;47.15
56334;BME280;42240;53.626;55.886;2024-02-28T02:25:50;80533.31;;;-145.10;46.90
56334;BME280;42240;53.626;55.886;2024-02-28T02:27:25;80450.16;;;-145.10;46.86
56334;BME280;42240;53.626;55.886;2024-02-28T02:28:59;80446.22;;;-145.10;46.59
56334;BME280;42240;53.626;55.886;2024-02-28T02:30:32;80438.28;;;-145.10;46.65
56334;BME280;42240;53.626;55.886;2024-02-28T02:32:05;80420.47;;;-145.10;46.53
56334;BME280;42240;53.626;55.886;2024-02-28T02:33:38;80422.47;;;-145.10;46.58
56334;BME280;42240;53.626;55.886;2024-02-28T02:35:12;58971.94;;;-145.10;100.00
56334;BME280;42240;53.626;55.886;2024-02-28T02:36:45;58971.94;;;-145.10;100.00
56334;BME280;42240;53.626;55.886;2024-02-28T02:38:19;58971.94;;;-145.10;100.00
56334;BME280;42240;53.626;55.886;2024-02-28T02:39:53;58971.94;;;-145.10;100.00
56334;BME280;42240;53.626;55.886;2024-02-28T02:41:26;58971.94;;;-145.10;100.00
56334;BME280;42240;53.626;55.886;2024-02-28T02:43:00;58971.94;;;-145.10;100.00
56334;BME280;42240;53.626;55.886;2024-02-28T02:44:34;58971.94;;;-145.10;100.00
56334;BME280;42240;53.626;55.886;2024-02-28T02:46:08;58971.94;;;-145.10;100.00
56334;BME280;42240;53.626;55.886;2024-02-28T02:47:42;58971.94;;;-145.10;100.00
56334;BME280;42240;53.626;55.886;2024-02-28T02:49:16;58971.94;;;-145.10;100.00
56334;BME280;42240;53.626;55.886;2024-02-28T02:50:51;58971.94;;;-145.10;100.00
56334;BME280;42240;53.626;55.886;2024-02-28T02:52:24;58971.94;;;-145.10;100.00
56334;BME280;42240;53.626;55.886;2024-02-28T02:53:58;58971.94;;;-145.10;100.00
56334;BME280;42240;53.626;55.886;2024-02-28T02:55:31;58971.94;;;-145.10;100.00
56334;BME280;42240;53.626;55.886;2024-02-28T02:57:04;58971.94;;;-145.10;100.00
56334;BME280;42240;53.626;55.886;2024-02-28T02:58:38;58971.94;;;-145.10;100.00
56334;BME280;42240;53.626;55.886;2024-02-28T03:00:11;58971.94;;;-145.10;100.00
56334;BME280;42240;53.626;55.886;2024-02-28T03:01:44;58971.94;;;-145.10;100.00
56334;BME280;42240;53.626;55.886;2024-02-28T03:03:17;58971.94;;;-145.10;100.00
56334;BME280;42240;53.626;55.886;2024-02-28T03:04:50;58971.94;;;-145.10;100.00
56334;BME280;42240;53.626;55.886;2024-02-28T03:06:27;58971.94;;;-145.10;100.00
56334;BME280;42240;53.626;55.886;2024-02-28T03:08:00;58971.94;;;-145.10;100.00
56334;BME280;42240;53.626;55.886;2024-02-28T03:09:33;58971.94;;;-145.10;100.00
56334;BME280;42240;53.626;55.886;2024-02-28T03:11:06;58971.94;;;-145.10;100.00
56334;BME280;42240;53.626;55.886;2024-02-28T03:12:41;58971.94;;;-145.10;100.00
56334;BME280;42240;53.626;55.886;2024-02-28T03:14:18;58971.94;;;-145.10;100.00
56334;BME280;42240;53.626;55.886;2024-02-28T03:15:53;58971.94;;;-145.10;100.00
56334;BME280;42240;53.626;55.886;2024-02-28T03:17:26;58971.94;;;-145.10;100.00
56334;BME280;42240;53.626;55.886;2024-02-28T03:18:59;58971.94;;;-145.10;100.00
56334;BME280;42240;53.626;55.886;2024-02-28T03:20:32;58971.94;;;-145.10;100.00
56334;BME280;42240;53.626;55.886;2024-02-28T03:22:04;58971.94;;;-145.10;100.00
56334;BME280;42240;53.626;55.886;2024-02-28T03:23:37;58971.94;;;-145.10;100.00
56334;BME280;42240;53.626;55.886;2024-02-28T03:25:12;58971.94;;;-145.10;100.00
56334;BME280;42240;53.626;55.886;2024-02-28T03:26:46;58971.94;;;-145.10;100.00
56334;BME280;42240;53.626;55.886;2024-02-28T03:28:19;58971.94;;;-145.10;100.00
56334;BME280;42240;53.626;55.886;2024-02-28T03:29:52;58971.94;;;-145.10;100.00
56334;BME280;42240;53.626;55.886;2024-02-28T03:31:26;58971.94;;;-145.10;100.00
56334;BME280;42240;53.626;55.886;2024-02-28T03:32:59;58971.94;;;-145.10;100.00
56334;BME280;42240;53.626;55.886;2024-02-28T03:34:32;58971.94;;;-145.10;100.00
56334;BME280;42240;53.626;55.886;2024-02-28T03:36:06;58971.94;;;-145.10;100.00
56334;BME280;42240;53.626;55.886;2024-02-28T03:37:39;58971.94;;;-145.10;100.00
56334;BME280;42240;53.626;55.886;2024-02-28T03:39:12;58971.94;;;-145.10;100.00
56334;BME280;42240;53.626;55.886;2024-02-28T03:40:45;58971.94;;;-145.10;100.00
56334;BME280;42240;53.626;55.886;2024-02-28T03:42:18;58971.94;;;-145.10;100.00
56334;BME280;42240;53.626;55.886;2024-02-28T03:43:51;58971.94;;;-145.10;100.00
56334;BME280;42240;53.626;55.886;2024-02-28T03:45:24;58971.94;;;-145.10;100.00
56334;BME280;42240;53.626;55.886;2024-02-28T03:46:57;58971.94;;;-145.10;100.00
56334;BME280;42240;53.626;55.886;2024-02-28T03:48:29;58971.94;;;-145.10;100.00
56334;BME280;42240;53.626;55.886;2024-02-28T03:50:03;58971.94;;;-145.10;100.00
56334;BME280;42240;53.626;55.886;2024-02-28T03:51:40;58971.94;;;-145.10;100.00
56334;BME280;42240;53.626;55.886;2024-02-28T03:53:13;58971.94;;;-145.10;100.00
56334;BME280;42240;53.626;55.886;2024-02-28T03:54:46;58971.94;;;-145.10;100.00
56334;BME280;42240;53.626;55.886;2024-02-28T03:56:26;58971.94;;;-145.10;100.00
56334;BME280;42240;53.626;55.886;2024-02-28T03:57:59;58971.94;;;-145.10;100.00
56334;BME280;42240;53.626;55.886;2024-02-28T03:59:33;58971.94;;;-145.10;100.00
56334;BME280;42240;53.626;55.886;2024-02-28T04:01:06;58971.94;;;-145.10;100.00
56334;BME280;42240;53.626;55.886;2024-02-28T04:02:39;58971.94;;;-145.10;100.00
56334;BME280;42240;53.626;55.886;2024-02-28T04:04:12;58971.94;;;-145.10;100.00
56334;BME280;42240;53.626;55.886;2024-02-28T04:05:45;58971.94;;;-145.10;100.00
56334;BME280;42240;53.626;55.886;2024-02-28T04:07:18;58971.94;;;-145.10;100.00
56334;BME280;42240;53.626;55.886;2024-02-28T04:08:50;58971.94;;;-145.10;100.00
56334;BME280;42240;53.626;55.886;2024-02-28T04:10:24;58971.94;;;-145.10;100.00
56334;BME280;42240;53.626;55.886;2024-02-28T04:11:57;58971.94;;;-145.10;100.00
56334;BME280;42240;53.626;55.886;2024-02-28T04:13:29;58971.94;;;-145.10;100.00
56334;BME280;42240;53.626;55.886;2024-02-28T04:15:02;58971.94;;;-145.10;100.00
56334;BME280;42240;53.626;55.886;2024-02-28T04:16:41;58971.94;;;-145.10;100.00
56334;BME280;42240;53.626;55.886;2024-02-28T04:18:14;58971.94;;;-145.10;100.00
56334;BME280;42240;53.626;55.886;2024-02-28T04:19:47;58971.94;;;-145.10;100.00
56334;BME280;42240;53.626;55.886;2024-02-28T04:21:20;58971.94;;;-145.10;100.00
56334;BME280;42240;53.626;55.886;2024-02-28T04:22:53;58971.94;;;-145.10;100.00
56334;BME280;42240;53.626;55.886;2024-02-28T04:24:26;58971.94;;;-145.10;100.00
56334;BME280;42240;53.626;55.886;2024-02-28T04:25:59;58971.94;;;-145.10;100.00
56334;BME280;42240;53.626;55.886;2024-02-28T04:27:32;58971.94;;;-145.10;100.00
56334;BME280;42240;53.626;55.886;2024-02-28T04:29:05;58971.94;;;-145.10;100.00
56334;BME280;42240;53.626;55.886;2024-02-28T04:30:40;58971.94;;;-145.10;100.00
56334;BME280;42240;53.626;55.886;2024-02-28T04:32:13;58971.94;;;-145.10;100.00
56334;BME280;42240;53.626;55.886;2024-02-28T04:33:46;58971.94;;;-145.10;100.00
56334;BME280;42240;53.626;55.886;2024-02-28T04:35:19;58971.94;;;-145.10;100.00
56334;BME280;42240;53.626;55.886;2024-02-28T04:36:52;58971.94;;;-145.10;100.00
56334;BME280;42240;53.626;55.886;2024-02-28T04:38:25;58971.94;;;-145.10;100.00
56334;BME280;42240;53.626;55.886;2024-02-28T04:39:58;58971.94;;;-145.10;100.00
56334;BME280;42240;53.626;55.886;2024-02-28T04:41:32;58971.94;;;-145.10;100.00
56334;BME280;42240;53.626;55.886;2024-02-28T04:43:06;58971.94;;;-145.10;100.00
56334;BME280;42240;53.626;55.886;2024-02-28T04:44:40;58971.94;;;-145.10;100.00
56334;BME280;42240;53.626;55.886;2024-02-28T04:46:13;58971.94;;;-145.10;100.00
56334;BME280;42240;53.626;55.886;2024-02-28T04:47:46;58971.94;;;-145.10;100.00
56334;BME280;42240;53.626;55.886;2024-02-28T04:49:19;58971.94;;;-145.10;100.00
56334;BME280;42240;53.626;55.886;2024-02-28T04:50:52;58971.94;;;-145.10;100.00
56334;BME280;42240;53.626;55.886;2024-02-28T04:52:25;58971.94;;;-145.10;100.00
56334;BME280;42240;53.626;55.886;2024-02-28T04:53:59;58971.94;;;-145.10;100.00
56334;BME280;42240;53.626;55.886;2024-02-28T04:55:32;58971.94;;;-145.10;100.00
56334;BME280;42240;53.626;55.886;2024-02-28T04:57:05;58971.94;;;-145.10;100.00
56334;BME280;42240;53.626;55.886;2024-02-28T04:58:39;58971.94;;;-145.10;100.00
56334;BME280;42240;53.626;55.886;2024-02-28T05:00:12;58971.94;;;-145.10;100.00
56334;BME280;42240;53.626;55.886;2024-02-28T05:01:45;58971.94;;;-145.10;100.00
56334;BME280;42240;53.626;55.886;2024-02-28T05:03:18;58971.94;;;-145.10;100.00
56334;BME280;42240;53.626;55.886;2024-02-28T05:04:51;58971.94;;;-145.10;100.00
56334;BME280;42240;53.626;55.886;2024-02-28T05:06:24;58971.94;;;-145.10;100.00
56334;BME280;42240;53.626;55.886;2024-02-28T05:07:57;58971.94;;;-145.10;100.00
56334;BME280;42240;53.626;55.886;2024-02-28T05:09:30;58971.94;;;-145.10;100.00
56334;BME280;42240;53.626;55.886;2024-02-28T05:11:04;58971.94;;;-145.10;100.00
56334;BME280;42240;53.626;55.886;2024-02-28T05:12:37;58971.94;;;-145.10;100.00
56334;BME280;42240;53.626;55.886;2024-02-28T05:14:11;58971.94;;;-145.10;100.00
56334;BME280;42240;53.626;55.886;2024-02-28T05:15:44;58971.94;;;-145.10;100.00
56334;BME280;42240;53.626;55.886;2024-02-28T05:17:18;58971.94;;;-145.10;100.00
56334;BME280;42240;53.626;55.886;2024-02-28T05:18:51;58971.94;;;-145.10;100.00
56334;BME280;42240;53.626;55.886;2024-02-28T05:20:25;58971.94;;;-145.10;100.00
56334;BME280;42240;53.626;55.886;2024-02-28T05:21:58;58971.94;;;-145.10;100.00
56334;BME280;42240;53.626;55.886;2024-02-28T05:23:31;58971.94;;;-145.10;100.00
56334;BME280;42240;53.626;55.886;2024-02-28T05:25:08;58971.94;;;-145.10;100.00
56334;BME280;42240;53.626;55.886;2024-02-28T05:26:41;58971.94;;;-145.10;100.00
56334;BME280;42240;53.626;55.886;2024-02-28T05:28:15;58971.94;;;-145.10;100.00
56334;BME280;42240;53.626;55.886;2024-02-28T05:29:48;58971.94;;;-145.10;100.00
56334;BME280;42240;53.626;55.886;2024-02-28T05:31:25;58971.94;;;-145.10;100.00
56334;BME280;42240;53.626;55.886;2024-02-28T05:32:58;58971.94;;;-145.10;100.00
56334;BME280;42240;53.626;55.886;2024-02-28T05:34:31;58971.94;;;-145.10;100.00
56334;BME280;42240;53.626;55.886;2024-02-28T05:36:05;58971.94;;;-145.10;100.00
56334;BME280;42240;53.626;55.886;2024-02-28T05:37:38;58971.94;;;-145.10;100.00
56334;BME280;42240;53.626;55.886;2024-02-28T05:39:12;58971.94;;;-145.10;100.00
56334;BME280;42240;53.626;55.886;2024-02-28T05:40:45;58971.94;;;-145.10;100.00
56334;BME280;42240;53.626;55.886;2024-02-28T05:42:18;58971.94;;;-145.10;100.00
56334;BME280;42240;53.626;55.886;2024-02-28T05:43:54;58971.94;;;-145.10;100.00
56334;BME280;42240;53.626;55.886;2024-02-28T05:45:28;58971.94;;;-145.10;100.00
56334;BME280;42240;53.626;55.886;2024-02-28T05:47:01;58971.94;;;-145.10;100.00
56334;BME280;42240;53.626;55.886;2024-02-28T05:48:35;58971.94;;;-145.10;100.00
56334;BME280;42240;53.626;55.886;2024-02-28T05:50:08;58971.94;;;-145.10;100.00
56334;BME280;42240;53.626;55.886;2024-02-28T05:51:42;58971.94;;;-145.10;100.00
56334;BME280;42240;53.626;55.886;2024-02-28T05:53:15;58971.94;;;-145.10;100.00
56334;BME280;42240;53.626;55.886;2024-02-28T05:54:48;58971.94;;;-145.10;100.00
56334;BME280;42240;53.626;55.886;2024-02-28T05:56:23;58971.94;;;-145.10;100.00
56334;BME280;42240;53.626;55.886;2024-02-28T05:57:57;58971.94;;;-145.10;100.00
56334;BME280;42240;53.626;55.886;2024-02-28T05:59:29;58971.94;;;-145.10;100.00
56334;BME280;42240;53.626;55.886;2024-02-28T06:01:03;58971.94;;;-145.10;100.00
56334;BME280;42240;53.626;55.886;2024-02-28T06:02:37;58971.94;;;-145.10;100.00
56334;BME280;42240;53.626;55.886;2024-02-28T06:04:10;58971.94;;;-145.10;100.00
56334;BME280;42240;53.626;55.886;2024-02-28T06:05:43;58971.94;;;-145.10;100.00
56334;BME280;42240;53.626;55.886;2024-02-28T06:07:16;58971.94;;;-145.10;100.00
56334;BME280;42240;53.626;55.886;2024-02-28T06:08:49;58971.94;;;-145.10;100.00
56334;BME280;42240;53.626;55.886;2024-02-28T06:10:22;58971.94;;;-145.10;100.00
56334;BME280;42240;53.626;55.886;2024-02-28T06:11:55;58971.94;;;-145.10;100.00
56334;BME280;42240;53.626;55.886;2024-02-28T06:13:31;58971.94;;;-145.10;100.00
56334;BME280;42240;53.626;55.886;2024-02-28T06:15:05;58971.94;;;-145.10;100.00
56334;BME280;42240;53.626;55.886;2024-02-28T06:16:38;58971.94;;;-145.10;100.00
56334;BME280;42240;53.626;55.886;2024-02-28T06:18:11;58971.94;;;-145.10;100.00
56334;BME280;42240;53.626;55.886;2024-02-28T06:19:44;58971.94;;;-145.10;100.00
56334;BME280;42240;53.626;55.886;2024-02-28T06:21:17;58971.94;;;-145.10;100.00
56334;BME280;42240;53.626;55.886;2024-02-28T06:22:50;58971.94;;;-145.10;100.00
56334;BME280;42240;53.626;55.886;2024-02-28T06:24:23;58971.94;;;-145.10;100.00
56334;BME280;42240;53.626;55.886;2024-02-28T06:25:57;58971.94;;;-145.10;100.00
56334;BME280;42240;53.626;55.886;2024-02-28T06:27:30;58971.94;;;-145.10;100.00
56334;BME280;42240;53.626;55.886;2024-02-28T06:29:03;58971.94;;;-145.10;100.00
56334;BME280;42240;53.626;55.886;2024-02-28T06:30:37;58971.94;;;-145.10;100.00
56334;BME280;42240;53.626;55.886;2024-02-28T06:32:10;58971.94;;;-145.10;100.00
56334;BME280;42240;53.626;55.886;2024-02-28T06:33:44;58971.94;;;-145.10;100.00
56334;BME280;42240;53.626;55.886;2024-02-28T06:35:17;58971.94;;;-145.10;100.00
56334;BME280;42240;53.626;55.886;2024-02-28T06:36:50;58971.94;;;-145.10;100.00
56334;BME280;42240;53.626;55.886;2024-02-28T06:38:23;58971.94;;;-145.10;100.00
56334;BME280;42240;53.626;55.886;2024-02-28T06:39:56;58971.94;;;-145.10;100.00
56334;BME280;42240;53.626;55.886;2024-02-28T06:41:29;58971.94;;;-145.10;100.00
56334;BME280;42240;53.626;55.886;2024-02-28T06:43:02;58971.94;;;-145.10;100.00
56334;BME280;42240;53.626;55.886;2024-02-28T06:44:36;58971.94;;;-145.10;100.00
56334;BME280;42240;53.626;55.886;2024-02-28T06:46:10;58971.94;;;-145.10;100.00
56334;BME280;42240;53.626;55.886;2024-02-28T06:47:43;58971.94;;;-145.10;100.00
56334;BME280;42240;53.626;55.886;2024-02-28T06:49:18;58971.94;;;-145.10;100.00
56334;BME280;42240;53.626;55.886;2024-02-28T06:50:51;58971.94;;;-145.10;100.00
56334;BME280;42240;53.626;55.886;2024-02-28T06:52:24;58971.94;;;-145.10;100.00
56334;BME280;42240;53.626;55.886;2024-02-28T06:53:57;58971.94;;;-145.10;100.00
56334;BME280;42240;53.626;55.886;2024-02-28T06:55:30;58971.94;;;-145.10;100.00
56334;BME280;42240;53.626;55.886;2024-02-28T06:57:03;58971.94;;;-145.10;100.00
56334;BME280;42240;53.626;55.886;2024-02-28T06:58:36;58971.94;;;-145.10;100.00
56334;BME280;42240;53.626;55.886;2024-02-28T07:00:10;58971.94;;;-145.10;100.00
56334;BME280;42240;53.626;55.886;2024-02-28T07:01:45;58971.94;;;-145.10;100.00
56334;BME280;42240;53.626;55.886;2024-02-28T07:03:18;58971.94;;;-145.10;100.00
56334;BME280;42240;53.626;55.886;2024-02-28T07:04:52;58971.94;;;-145.10;100.00
56334;BME280;42240;53.626;55.886;2024-02-28T07:06:26;58971.94;;;-145.10;100.00
56334;BME280;42240;53.626;55.886;2024-02-28T07:08:00;58971.94;;;-145.10;100.00
56334;BME280;42240;53.626;55.886;2024-02-28T07:09:34;58971.94;;;-145.10;100.00
56334;BME280;42240;53.626;55.886;2024-02-28T07:11:14;58971.94;;;-145.10;100.00
56334;BME280;42240;53.626;55.886;2024-02-28T07:12:47;58971.94;;;-145.10;100.00
56334;BME280;42240;53.626;55.886;2024-02-28T07:14:20;58971.94;;;-145.10;100.00
56334;BME280;42240;53.626;55.886;2024-02-28T07:15:53;58971.94;;;-145.10;100.00
56334;BME280;42240;53.626;55.886;2024-02-28T07:17:31;58971.94;;;-145.10;100.00
56334;BME280;42240;53.626;55.886;2024-02-28T07:19:04;58971.94;;;-145.10;100.00
56334;BME280;42240;53.626;55.886;2024-02-28T07:20:38;58971.94;;;-145.10;100.00
56334;BME280;42240;53.626;55.886;2024-02-28T07:22:11;58971.94;;;-145.10;100.00
56334;BME280;42240;53.626;55.886;2024-02-28T07:23:44;58971.94;;;-145.10;100.00
56334;BME280;42240;53.626;55.886;2024-02-28T07:25:16;58971.94;;;-145.10;100.00
56334;BME280;42240;53.626;55.886;2024-02-28T07:26:54;58971.94;;;-145.10;100.00
56334;BME280;42240;53.626;55.886;2024-02-28T07:28:27;58971.94;;;-145.10;100.00
56334;BME280;42240;53.626;55.886;2024-02-28T07:30:01;58971.94;;;-145.10;100.00
56334;BME280;42240;53.626;55.886;2024-02-28T07:31:35;58971.94;;;-145.10;100.00
56334;BME280;42240;53.626;55.886;2024-02-28T07:33:08;58971.94;;;-145.10;100.00
56334;BME280;42240;53.626;55.886;2024-02-28T07:34:41;58971.94;;;-145.10;100.00
56334;BME280;42240;53.626;55.886;2024-02-28T07:36:14;58971.94;;;-145.10;100.00
56334;BME280;42240;53.626;55.886;2024-02-28T07:37:47;58971.94;;;-145.10;100.00
56334;BME280;42240;53.626;55.886;2024-02-28T07:39:20;58971.94;;;-145.10;100.00
56334;BME280;42240;53.626;55.886;2024-02-28T07:40:53;58971.94;;;-145.10;100.00
56334;BME280;42240;53.626;55.886;2024-02-28T07:42:29;58971.94;;;-145.10;100.00
56334;BME280;42240;53.626;55.886;2024-02-28T07:44:04;58971.94;;;-145.10;100.00
56334;BME280;42240;53.626;55.886;2024-02-28T07:45:37;58971.94;;;-145.10;100.00
56334;BME280;42240;53.626;55.886;2024-02-28T07:47:12;58971.94;;;-145.10;100.00
56334;BME280;42240;53.626;55.886;2024-02-28T07:48:45;58971.94;;;-145.10;100.00
56334;BME280;42240;53.626;55.886;2024-02-28T07:50:18;58971.94;;;-145.10;100.00
56334;BME280;42240;53.626;55.886;2024-02-28T07:51:51;58971.94;;;-145.10;100.00
56334;BME280;42240;53.626;55.886;2024-02-28T07:53:25;58971.94;;;-145.10;100.00